Tiempo atmosférico en la estación meteorológica de Guadalajara, Guadalajara (721 m.)



Fecha
DESCASC
Temp. máxima en grados centígrados (hora)
DESCASC
Temp. mínima en grados centígrados (hora)
DESCASC
Temp. media en grados centígrados
DESCASC
Racha de viento máxima en m/sg (hora)
DESCASC
Velocidad máxima media en intervalos de 10 minutos(hora)
DESCASC
Precipitaciones diarias en mm
DESCASC
Precipitaciones de 00:00 a 06:00 en mm
DESCASC
Precipitaciones de 06:00 a 12:00 en mm
DESCASC
Precipitaciones de 12:00 a 18:00 en mm
DESCASC
Precipitaciones de 18:00 a 24:00 en mm
DESCASC

Gráficas

Temp. máximas Temp. mínimas Temp. medias Precipitaciones Rachas de viento máximas Velocidades máximas media en intervalos de 10 minutos

Datos horarios

Fecha y hora oficial Temperatura (ºC) Velocidad del viento (km/h) Dirección del viento Racha (km/h) Dirección de racha Precipitación (mm) Presión (hPa) Tendencia (hPa) Humedad (%)
2019-10-15 23:00:00 12 3 Noroeste 12 Sudoeste 0 937.2 1.3 54
2019-10-15 22:00:00 12.3 9 Sudoeste 17 Sur 0 936.7 1.2 51
2019-10-15 21:00:00 12.5 11 Sur 18 Sudoeste 0 936.4 0.8 51
2019-10-15 20:00:00 13.3 9 Sur 14 Sudoeste 0 935.9 0.2 53
2019-10-15 19:00:00 15.1 10 Sudoeste 21 Sudoeste 0 935.5 -0.2 46
2019-10-15 18:00:00 16 13 Sudoeste 22 Oeste 0 935.6 -0.6 43
2019-10-15 17:00:00 16.5 13 Sudoeste 23 Sudoeste 0 935.7 -1 43
2019-10-15 16:00:00 16.5 6 Oeste 23 Sudoeste 0 935.7 -1.4 40
2019-10-15 15:00:00 15.6 11 Sudoeste 22 Sudoeste 0.2 936.2 -0.9 42
2019-10-15 14:00:00 15 10 Sudoeste 21 Sudoeste 0 936.7 -0.3 45
2019-10-15 13:00:00 13.6 7 Sudoeste 18 Sudoeste 0 937.1 0.8 51
2019-10-15 12:00:00 12.5 9 Sudoeste 17 Oeste 0 937.1 1.4 56
2019-10-15 11:00:00 11.7 8 Sudoeste 13 Sudoeste 0 937 1.7 55
2019-10-15 10:00:00 9.8 4 Nordeste 10 Norte 0 936.3 1.4 62
2019-10-15 09:00:00 6.1 3 Norte 8 Norte 0 935.7 1.1 82
2019-10-15 08:00:00 5.7 3 Este 6 Sudeste 0 935.3 0.8 81
2019-10-15 07:00:00 6.7 3 Sur 15 Sur 0 934.9 0.6 77
2019-10-15 06:00:00 7 6 Oeste 13 Sudeste 0 934.6 0.5 77
2019-10-15 05:00:00 7.6 6 Sudoeste 21 Oeste 0 934.5 0.6 75
2019-10-15 04:00:00 8.3 8 Oeste 20 Noroeste 0 934.3 1 71
2019-10-15 03:00:00 8.3 10 Sudoeste 17 Sudoeste 0 934.1 1.1 79
2019-10-15 02:00:00 8.8 9 Sudoeste 15 Sur 0 933.9 1.6 83
2019-10-15 01:00:00 9.3 8 Sudoeste 14 Sudoeste 0 933.3 1.3 88
2019-10-15 00:00:00 9.8 9 Oeste 34 Sudoeste 0 933 1.9 83
2019-10-14 23:00:00 10.4 15 Sudoeste 24 Oeste 0 932.3 0.9 91
2019-10-14 22:00:00 10.5 11 Oeste 22 Oeste 0.2 932 1.8 93
2019-10-14 21:00:00 10.6 13 Sudoeste 28 Sudoeste 0.8 931.1 2.6 90
2019-10-14 20:00:00 11.3 10 Oeste 48 Oeste 1.6 931.4 3.1 91
2019-10-14 19:00:00 13.3 25 Oeste 57 Oeste 0.6 930.2 2.2 80
2019-10-14 18:00:00 18 18 Sudoeste 46 Oeste 0 928.5 0 47
2019-10-14 17:00:00 19.2 18 Sudoeste 43 Sudoeste 0 928.3 -0.7 46
2019-10-14 16:00:00 19.1 25 Sudoeste 51 Sudoeste 0 928 -1 48
2019-10-14 15:00:00 18.4 24 Sudoeste 45 Sudoeste 0 928.5 -0.7 54
2019-10-14 14:00:00 17.8 23 Oeste 49 Oeste 0 929 -0.2 62
2019-10-14 13:00:00 19.2 24 Sudoeste 43 Sudoeste 0 929 0.2 57
2019-10-14 12:00:00 18.7 21 Sudoeste 35 Sudoeste 0 929.2 1.2 60
2019-10-14 11:00:00 18.8 22 Oeste 44 Sur 0 929.2 1.9 63
2019-10-14 10:00:00 18.3 23 Sudoeste 46 Sudoeste 0 928.8 1.6 66
2019-10-14 09:00:00 18.7 23 Sudoeste 39 Sur 0 928 0.4 56
2019-10-14 08:00:00 18 17 Sur 37 Sudoeste 0.2 927.3 0 67
2019-10-14 07:00:00 17.7 14 Sur 24 Sur 0 927.2 -0.5 70
2019-10-14 06:00:00 17.8 5 Sudoeste 19 Sudoeste 0 927.6 -0.8 69
2019-10-14 05:00:00 17.3 6 Este 30 Sudeste 0 927.3 -2.1 69
2019-10-14 04:00:00 17.9 10 Sur 25 Sur 0 927.7 -2.2 61
2019-10-14 03:00:00 17.6 17 Sudeste 30 Sudeste 0 928.4 -2.3 59
2019-10-14 02:00:00 15.9 11 Sudeste 21 Sur 0 929.4 -1.9 58
2019-10-14 01:00:00 15.6 4 Nordeste 13 Norte 0 929.9 -1.3 76
2019-10-14 00:00:00 16.6 4 Noroeste 8 Este 0 930.7 -0.6 71
2019-10-13 23:00:00 17 4 Nordeste 6 Norte 0 931.3 -0.1 72
2019-10-13 22:00:00 17.5 4 Sudeste 7 Sudeste 0 931.2 0 72
2019-10-13 21:00:00 18.3 2 Sur 8 Sudeste 0 931.3 0.2 69
2019-10-13 20:00:00 20.9 4 Sur 13 Sudoeste 0 931.4 -0.2 59
2019-10-13 19:00:00 23.4 8 Oeste 16 Oeste 0 931.2 -0.5 49
2019-10-13 18:00:00 24.7 6 Oeste 17 Sudoeste 0.2 931.1 -1.1 46
2019-10-13 17:00:00 24.4 9 Sudoeste 21 Oeste 0 931.6 -1.3 48
2019-10-13 16:00:00 24 10 Oeste 25 Oeste 0 931.7 -1.8 50
2019-10-13 15:00:00 23.3 13 Oeste 30 Sudoeste 0 932.2 -1.6 52
2019-10-13 14:00:00 22.3 14 Sudoeste 28 Sur 0 932.9 -0.8 56
2019-10-13 13:00:00 21.1 17 Sudoeste 31 Sudoeste 0 933.5 0.2 60
2019-10-13 12:00:00 19 14 Sudoeste 23 Sudoeste 0 933.8 1.4 71
2019-10-13 11:00:00 17.6 3 Oeste 12 Sudoeste 0.2 933.7 1.8 78
2019-10-13 10:00:00 15.9 5 Oeste 23 Oeste 0 933.3 1.8 83
2019-10-13 09:00:00 15.8 5 Sudoeste 21 Sur 0 932.4 0.8 86
2019-10-13 08:00:00 14.2 4 Oeste 11 Sudoeste 0 931.9 0 92
2019-10-13 07:00:00 14.6 6 Oeste 14 Sudeste 0 931.5 -0.5 86
2019-10-13 06:00:00 15 3 Nordeste 11 Nordeste 0 931.6 -1 85
2019-10-13 05:00:00 15.6 3 Norte 19 Sur 0.2 931.9 -0.2 83
2019-10-13 04:00:00 15.8 6 Este 15 Este 0 932 -1.3 78
2019-10-13 03:00:00 16.4 7 Este 40 Sudeste 0 932.6 -2.5 73
2019-10-13 02:00:00 16.5 29 Sudeste 43 Sudeste 0.2 932.1 -2.2 73
2019-10-13 01:00:00 15.8 12 Este 18 Este 0.2 933.3 -1.2 83
2019-10-13 00:00:00 16.4 9 Sudoeste 23 Sur 0.4 935.1 2.9 82
2019-10-12 23:00:00 16.4 11 Sur 17 Sur 0.6 934.3 2.8 77
2019-10-12 22:00:00 16.3 7 Sudeste 61 Sudoeste 3.2 934.5 2.8 80
2019-10-12 21:00:00 21.9 16 Sur 25 Sudeste 0 932.2 0 47
2019-10-12 20:00:00 22.6 3 Sudoeste 18 Sudeste 0 931.5 -0.9 48
2019-10-12 19:00:00 24.6 5 Sur 26 Sudoeste 0 931.7 -0.9 42
2019-10-12 18:00:00 25.1 14 Sudoeste 25 Sur 0 932.2 -1.1 39
2019-10-12 17:00:00 25.9 11 Sudoeste 26 Sudoeste 0 932.4 -1.5 35
2019-10-12 16:00:00 26 12 Sur 21 Sur 0 932.6 -1.8 35
2019-10-12 15:00:00 26 14 Sur 26 Sur 0 933.3 -1.1 37
2019-10-12 14:00:00 25.3 11 Sudoeste 22 Sudoeste 0 933.9 -1 41
2019-10-12 13:00:00 24.8 9 Sudoeste 26 Sur 0 934.4 -0.3 43
2019-10-12 12:00:00 23.1 9 Sudeste 19 Sur 0 934.4 -0.2 48
2019-10-12 11:00:00 21.8 6 Este 12 Sudeste 0 934.9 1 57
2019-10-12 10:00:00 18.8 3 Nordeste 11 Sudeste 0 934.7 1.1 69
2019-10-12 09:00:00 16.7 4 Sur 7 Sudoeste 0 934.6 1.1 74
2019-10-12 08:00:00 17.7 4 Noroeste 11 Sudoeste 0 933.9 0.4 67
2019-10-12 07:00:00 18.8 4 Norte 17 Sudeste 0 933.6 -0.2 67
2019-10-12 06:00:00 19 8 Sudeste 31 Sur 0 933.5 -0.9 65
2019-10-12 05:00:00 19.4 13 Sur 32 Sur 0 933.5 -0.5 64
2019-10-12 04:00:00 19.9 19 Sur 36 Sudeste 0 933.8 -0.5 62
2019-10-12 03:00:00 20.7 4 Sudoeste 19 Sudeste 0 934.4 0.3 51
2019-10-12 02:00:00 21.2 13 Sudeste 27 Sudeste 0 934 -0.5 48
2019-10-12 01:00:00 22 16 Sudeste 27 Sur 0 934.3 0.1 41
2019-10-12 00:00:00 22.5 15 Sudeste 31 Sudeste 0 934.1 0 39
2019-10-11 23:00:00 22.9 15 Sur 30 Sur 0 934.5 0.6 40
2019-10-11 22:00:00 22.8 14 Sur 22 Sur 0 934.2 0.4 45
2019-10-11 21:00:00 22.9 12 Sur 18 Sur 0 934.1 0.2 46
2019-10-11 20:00:00 24.2 6 Sur 22 Sur 0 933.9 -0.3 44
2019-10-11 19:00:00 26 14 Sudoeste 23 Sudoeste 0 933.8 -1 39
2019-10-11 18:00:00 27.2 11 Sudoeste 21 Sudoeste 0 933.9 -1.8 39
2019-10-11 17:00:00 27.3 10 Sudoeste 22 Sudoeste 0 934.2 -2.4 42
2019-10-11 16:00:00 26.7 8 Sur 23 Sudoeste 0 934.8 -2.8 45
2019-10-11 15:00:00 26.3 11 Sudoeste 19 Sudoeste 0 935.7 -2.3 46
2019-10-11 14:00:00 24.6 4 Sudoeste 10 Nordeste 0 936.6 -1.6 52
2019-10-11 13:00:00 23.2 5 Noroeste 12 Noroeste 0 937.6 -0.2 58
2019-10-11 12:00:00 21.1 5 Norte 10 Norte 0 938 0.7 64
2019-10-11 11:00:00 18.5 6 Norte 12 Norte 0 938.2 1.2 72
2019-10-11 10:00:00 17.2 6 Norte 12 Norte 0 937.8 1 71
2019-10-11 09:00:00 14.2 3 Noroeste 7 Sudoeste 0 937.3 0.5 83
2019-10-11 08:00:00 13.7 3 Noroeste 6 Nordeste 0 937 0.4 81
2019-10-11 07:00:00 14.1 3 Norte 6 Norte 0 936.8 0 81
2019-10-11 06:00:00 14.2 2 Oeste 5 Sudoeste 0 936.8 -0.2 80
2019-10-11 05:00:00 15.4 2 Oeste 6 Sudeste 0 936.6 -0.3 76
2019-10-11 04:00:00 15.6 3 Este 5 Este 0 936.8 0.1 79
2019-10-11 03:00:00 16.6 3 Sudeste 7 Sur 0 937 0.4 75
2019-10-11 02:00:00 18.5 4 Este 19 Sur 0 936.9 0.6 68
2019-10-11 01:00:00 20 8 Sur 24 Sudoeste 0 936.7 0.8 64
2019-10-11 00:00:00 20.2 5 Oeste 23 Sur 0 936.6 1 62
2019-10-10 23:00:00 19.8 5 Sur 20 Sur 0 936.3 1 62
2019-10-10 22:00:00 19.5 3 Sudeste 4 Sur 0 935.9 0.8 58
2019-10-10 21:00:00 21.1 4 Sur 5 Sur 0 935.6 0.6 55
2019-10-10 20:00:00 24.1 3 Sudoeste 12 Sudoeste 0 935.3 0.2 48
2019-10-10 19:00:00 26.1 7 Oeste 14 Oeste 0 935.1 -0.3 44
2019-10-10 18:00:00 27.1 6 Oeste 15 Oeste 0 935 -1.1 41
2019-10-10 17:00:00 26.6 6 Noroeste 11 Noroeste 0 935.1 -1.8 43
2019-10-10 16:00:00 26.4 5 Oeste 13 Noroeste 0 935.4 -2.1 45
2019-10-10 15:00:00 24.4 5 Nordeste 12 Noroeste 0 936.1 -1.9 48
2019-10-10 14:00:00 22.8 7 Noroeste 14 Norte 0 936.9 -1.1 52
2019-10-10 13:00:00 21.1 7 Noroeste 15 Noroeste 0 937.5 0 54
2019-10-10 12:00:00 19.6 8 Nordeste 15 Nordeste 0 938 1.2 57
2019-10-10 11:00:00 17.1 6 Nordeste 13 Nordeste 0 938 1.4 62
2019-10-10 10:00:00 14 4 Norte 9 Norte 0 937.5 1.2 67
2019-10-10 09:00:00 13 4 Norte 11 Nordeste 0 936.8 0.9 73
2019-10-10 08:00:00 11.5 4 Este 7 Nordeste 0 936.6 0.8 74
2019-10-10 07:00:00 11.9 4 Norte 10 Norte 0 936.3 0.5 72
2019-10-10 06:00:00 12.7 4 Noroeste 10 Norte 0 935.9 0 69
2019-10-10 05:00:00 13.4 5 Norte 16 Nordeste 0 935.8 0.1 67
2019-10-10 04:00:00 14.4 10 Nordeste 26 Nordeste 0 935.8 0.3 64
2019-10-10 03:00:00 14.9 13 Nordeste 24 Nordeste 0 935.9 0.7 63
2019-10-10 02:00:00 15.4 10 Nordeste 26 Este 0 935.7 1 63
2019-10-10 01:00:00 16.5 9 Norte 25 Nordeste 0 935.5 1.2 59
2019-10-10 00:00:00 17.9 14 Nordeste 30 Nordeste 0 935.2 1.7 58
2019-10-09 23:00:00 19.8 7 Nordeste 25 Este 0 934.7 1.9 45
2019-10-09 22:00:00 21.1 9 Nordeste 25 Este 0 934.3 1.9 41
2019-10-09 21:00:00 22.6 17 Este 30 Este 0 933.5 1.2 42
2019-10-09 20:00:00 24.8 5 Sur 10 Sudoeste 0 932.8 0.3 36
2019-10-09 19:00:00 28.2 3 Sudeste 14 Oeste 0 932.4 -0.5 29
2019-10-09 18:00:00 28.2 5 Norte 13 Norte 0 932.3 -0.8 29
2019-10-09 17:00:00 28.7 5 Nordeste 16 Sudoeste 0 932.5 -1.1 30
2019-10-09 16:00:00 28 7 Noroeste 17 Noroeste 0 932.9 -1.4 31
2019-10-09 15:00:00 28.1 4 Oeste 13 Noroeste 0 933.1 -1.6 32
2019-10-09 14:00:00 26.6 5 Norte 15 Sudeste 0 933.6 -1.2 38
2019-10-09 13:00:00 24.9 6 Nordeste 13 Nordeste 0 934.3 0.3 41
2019-10-09 12:00:00 22.7 4 Nordeste 10 Noroeste 0 934.7 0.9 45
2019-10-09 11:00:00 18.4 6 Norte 11 Norte 0 934.8 1.3 55
2019-10-09 10:00:00 16.3 3 Sur 21 Norte 0 934 0.8 61
2019-10-09 09:00:00 13.8 6 Sur 12 Norte 0 933.8 0.6 69
2019-10-09 08:00:00 14.3 4 Norte 12 Este 0 933.5 0.3 65
2019-10-09 07:00:00 14.3 6 Norte 10 Norte 0 933.2 0.2 64
2019-10-09 06:00:00 15.3 4 Noroeste 12 Sudeste 0 933.2 -0.3 61
2019-10-09 05:00:00 15 4 Este 15 Norte 0 933.2 -0.4 60
2019-10-09 04:00:00 16.4 2 Sudoeste 5 Sur 0 933 -0.8 56
2019-10-09 03:00:00 16.4 4 Este 10 Norte 0 933.5 -0.4 56
2019-10-09 02:00:00 17.1 6 Sur 9 Sur 0 933.6 -0.2 54
2019-10-09 01:00:00 17.8 0 Calma 5 Nordeste 0 933.8 0.1 52
2019-10-09 00:00:00 19.1 0 Calma 4 Noroeste 0 933.9 0.2 49
2019-10-08 23:00:00 20 2 Noroeste 8 Sur 0 933.8 0.5 46
2019-10-08 22:00:00 20.7 6 Sur 9 Sur 0 933.7 0.4 45
2019-10-08 21:00:00 22.3 5 Sur 10 Sur 0 933.7 0.2 40
2019-10-08 20:00:00 25.2 6 Sur 12 Oeste 0 933.3 -0.5 35
2019-10-08 19:00:00 28 6 Oeste 19 Oeste 0 933.3 -1 30
2019-10-08 18:00:00 28.6 9 Oeste 21 Oeste 0 933.5 -1.1 29
2019-10-08 17:00:00 28.8 10 Sudoeste 20 Oeste 0 933.8 -1.6 29
2019-10-08 16:00:00 28.4 8 Oeste 24 Oeste 0 934.3 -2 30
2019-10-08 15:00:00 27.6 9 Oeste 22 Sudoeste 0 934.6 -2.2 32
2019-10-08 14:00:00 26.7 10 Oeste 17 Oeste 0 935.4 -1.4 34
2019-10-08 13:00:00 25.5 4 Oeste 10 Sudoeste 0 936.3 -0.2 37
2019-10-08 12:00:00 22.6 4 Noroeste 6 Norte 0 936.8 0.5 42
2019-10-08 11:00:00 19.5 2 Nordeste 7 Noroeste 0 936.8 0.6 45
2019-10-08 10:00:00 17.1 4 Norte 9 Nordeste 0 936.5 0.8 52
2019-10-08 09:00:00 13.4 4 Nordeste 9 Norte 0 936.3 0.8 63
2019-10-08 08:00:00 13 3 Este 6 Este 0 936.2 0.6 62
2019-10-08 07:00:00 13.2 4 Noroeste 8 Este 0 935.7 -0.2 60
2019-10-08 06:00:00 13.7 0 Calma 8 Norte 0 935.5 -0.8 59
2019-10-08 05:00:00 15.2 2 Norte 10 Norte 0 935.6 -0.6 53
2019-10-08 04:00:00 17 5 Norte 13 Nordeste 0 935.9 -0.5 48
2019-10-08 03:00:00 17.8 5 Norte 16 Nordeste 0 936.3 -0.2 47
2019-10-08 02:00:00 18 8 Nordeste 18 Nordeste 0 936.2 0 43
2019-10-08 01:00:00 18 11 Nordeste 19 Nordeste 0 936.4 0.6 42
2019-10-08 00:00:00 17.6 2 Sudeste 8 Nordeste 0 936.5 1 47
2019-10-07 23:00:00 18.9 3 Este 9 Sur 0 936.2 1.2 44
2019-10-07 22:00:00 20.6 3 Sudoeste 8 Este 0 935.8 1.2 41
2019-10-07 21:00:00 22.3 3 Este 10 Sudeste 0 935.5 1 37
2019-10-07 20:00:00 25.2 5 Nordeste 19 Nordeste 0 935 0.4 33
2019-10-07 19:00:00 27.4 9 Nordeste 22 Nordeste 0 934.6 -0.2 31
2019-10-07 18:00:00 28.4 9 Nordeste 23 Noroeste 0 934.5 -1.1 30
2019-10-07 17:00:00 28.3 11 Noroeste 23 Noroeste 0 934.6 -1.5 29
2019-10-07 16:00:00 28.3 5 Sudeste 17 Nordeste 0 934.8 -1.6 29
2019-10-07 15:00:00 26.9 12 Norte 20 Nordeste 0 935.6 -1.1 30
2019-10-07 14:00:00 25.9 5 Nordeste 14 Norte 0 936.1 -0.6 26
2019-10-07 13:00:00 23.7 3 Nordeste 9 Oeste 0 936.4 -0.1 31
2019-10-07 12:00:00 21.2 3 Norte 8 Nordeste 0 936.7 0.5 45
2019-10-07 11:00:00 18.7 3 Norte 6 Noroeste 0 936.7 0.7 53
2019-10-07 10:00:00 16.3 0 Calma 8 Nordeste 0 936.5 0.9 62
2019-10-07 09:00:00 13 5 Nordeste 8 Este 0 936.2 0.8 72
2019-10-07 08:00:00 13.4 3 Noroeste 14 Nordeste 0 936 0.4 72
2019-10-07 07:00:00 14 3 Este 17 Nordeste 0 935.6 0.1 69
2019-10-07 06:00:00 14.9 10 Nordeste 19 Nordeste 0 935.4 -0.5 66
2019-10-07 05:00:00 15.1 6 Nordeste 17 Nordeste 0 935.6 -0.5 62
2019-10-07 04:00:00 14.6 2 Este 13 Nordeste 0 935.5 -1 61
2019-10-07 03:00:00 15.5 3 Nordeste 13 Este 0 935.9 -0.6 57
2019-10-07 02:00:00 16.4 10 Nordeste 16 Este 0 936.1 -0.2 53
2019-10-07 01:00:00 16.9 4 Sur 13 Nordeste 0 936.5 1 50
2019-10-07 00:00:00 18.2 8 Nordeste 12 Este 0 936.5 1.1 45
2019-10-06 23:00:00 19.3 6 Nordeste 10 Nordeste 0 936.3 1.6 38
2019-10-06 22:00:00 20.8 5 Nordeste 11 Nordeste 0 935.5 1 34
2019-10-06 21:00:00 22.5 5 Nordeste 13 Norte 0 935.4 1 31
2019-10-06 20:00:00 24.4 5 Oeste 12 Sudoeste 0 934.7 -0.2 30
2019-10-06 19:00:00 26.3 8 Sudoeste 17 Oeste 0 934.5 -0.8 26
2019-10-06 18:00:00 27 9 Oeste 21 Sudoeste 0 934.4 -1.3 25
2019-10-06 17:00:00 27.4 8 Oeste 19 Noroeste 0 934.9 -1.3 22
2019-10-06 16:00:00 27.1 8 Oeste 18 Sudoeste 0 935.3 -1.3 22
2019-10-06 15:00:00 26.5 5 Oeste 14 Sudoeste 0 935.7 -1.1 25
2019-10-06 14:00:00 25.4 5 Sudoeste 9 Noroeste 0 936.2 -0.7 32
2019-10-06 13:00:00 23.5 3 Oeste 10 Noroeste 0 936.6 0.1 35
2019-10-06 12:00:00 20.5 6 Norte 10 Noroeste 0 936.8 0.9 48
2019-10-06 11:00:00 17.5 3 Norte 8 Norte 0 936.9 1.7 55
2019-10-06 10:00:00 15.5 4 Norte 7 Norte 0 936.5 1.7 62
2019-10-06 09:00:00 11.1 3 Sudeste 7 Nordeste 0 935.9 1.5 76
2019-10-06 08:00:00 11.7 4 Noroeste 8 Norte 0 935.2 0.6 73
2019-10-06 07:00:00 12.7 5 Sudeste 13 Nordeste 0 934.8 0.6 68
2019-10-06 06:00:00 12.9 4 Norte 8 Nordeste 0 934.4 -0.2 69
2019-10-06 05:00:00 13.2 5 Sudeste 18 Noroeste 0 934.6 -0.1 66
2019-10-06 04:00:00 13.6 2 Noroeste 6 Noroeste 0 934.2 -0.2 65
2019-10-06 03:00:00 14.5 3 Nordeste 8 Este 0 934.6 0.2 61
2019-10-06 02:00:00 15.4 3 Norte 7 Norte 0 934.7 0.7 58
2019-10-06 01:00:00 16.4 2 Nordeste 5 Sudeste 0 934.4 0.7 55
2019-10-06 00:00:00 17.2 3 Sudeste 9 Sudeste 0 934.4 1 52
2019-10-05 23:00:00 18.3 2 Sur 8 Sur 0 934 1 49
2019-10-05 22:00:00 19.4 4 Sur 10 Sur 0 933.7 1.1 47
2019-10-05 21:00:00 20.9 7 Sur 11 Sur 0 933.4 1 41
2019-10-05 20:00:00 23.9 6 Sur 15 Sudoeste 0 933 0.6 34
2019-10-05 19:00:00 26.5 6 Sudoeste 15 Sudoeste 0 932.6 -0.1 29
2019-10-05 18:00:00 27.3 5 Oeste 17 Oeste 0 932.4 -0.7 28
2019-10-05 17:00:00 27.4 10 Oeste 18 Sudoeste 0 932.4 -1.2 26
2019-10-05 16:00:00 27.1 7 Noroeste 19 Oeste 0 932.7 -1.2 31
2019-10-05 15:00:00 26.6 5 Noroeste 17 Oeste 0 933.1 -1 32
2019-10-05 14:00:00 25.3 6 Noroeste 12 Oeste 0 933.6 -0.6 35
2019-10-05 13:00:00 24 4 Noroeste 9 Norte 0 933.9 -0.1 42
2019-10-05 12:00:00 21.8 3 Sudoeste 5 Sudoeste 0 934.1 0.7 50
2019-10-05 11:00:00 18 4 Noroeste 6 Noroeste 0 934.2 1.3 59
2019-10-05 10:00:00 15.6 4 Norte 7 Norte 0 934 1.2 66
2019-10-05 09:00:00 12.4 2 Este 5 Sudeste 0 933.4 0.6 76
2019-10-05 08:00:00 13.4 3 Noroeste 13 Nordeste 0 932.9 0 70
2019-10-05 07:00:00 13.8 3 Nordeste 13 Nordeste 0 932.8 0.1 70
2019-10-05 06:00:00 15.1 6 Nordeste 12 Este 0 932.8 -0.2 68
2019-10-05 05:00:00 14.9 2 Sudoeste 15 Nordeste 0 932.9 0 61
2019-10-05 04:00:00 15.2 5 Nordeste 11 Norte 0 932.7 -0.5 63
2019-10-05 03:00:00 13.6 2 Nordeste 5 Sudeste 0 933 0 55
2019-10-05 02:00:00 14.2 0 Calma 5 Este 0 932.9 0.1 52
2019-10-05 01:00:00 15.6 3 Sudeste 7 Noroeste 0 933.2 0.6 48
2019-10-05 00:00:00 17.4 0 Calma 5 Este 0 933 0.5 42
2019-10-04 23:00:00 18.9 6 Sur 12 Sur 0 932.8 0.4 39
2019-10-04 22:00:00 19.8 8 Sur 15 Sur 0 932.6 0.5 38
2019-10-04 21:00:00 21.2 8 Sur 14 Sur 0 932.5 0.3 36
2019-10-04 20:00:00 23.5 8 Sur 13 Sudoeste 0 932.4 -0.2 32
2019-10-04 19:00:00 25.7 10 Sudoeste 19 Sudoeste 0 932.1 -1.1 28
2019-10-04 18:00:00 26.4 8 Sudoeste 21 Sudoeste 0 932.2 -1.3 27
2019-10-04 17:00:00 25.9 11 Oeste 22 Sudoeste 0 932.6 -1.5 28
2019-10-04 16:00:00 25.8 7 Oeste 27 Oeste 0 933.2 -1.7 27
2019-10-04 15:00:00 26.2 12 Oeste 26 Sudoeste 0 933.5 -2 26
2019-10-04 14:00:00 25.9 15 Oeste 21 Sudoeste 0 934.1 -1.6 28
2019-10-04 13:00:00 23.8 4 Oeste 9 Noroeste 0 934.9 -0.7 32
2019-10-04 12:00:00 20.9 4 Norte 9 Norte 0 935.5 0.3 38
2019-10-04 11:00:00 16.8 4 Nordeste 9 Nordeste 0 935.7 0.8 48
2019-10-04 10:00:00 14.8 2 Norte 6 Norte 0 935.6 0.7 53
2019-10-04 09:00:00 10.6 3 Sur 7 Este 0 935.2 0.4 66
2019-10-04 08:00:00 10.4 3 Sudeste 5 Sudeste 0 934.9 -0.1 65
2019-10-04 07:00:00 11.1 0 Calma 9 Norte 0 934.9 0.1 64
2019-10-04 06:00:00 11.9 0 Calma 7 Nordeste 0 934.8 -0.3 60
2019-10-04 05:00:00 12.1 6 Nordeste 8 Nordeste 0 935 0 58
2019-10-04 04:00:00 13.6 3 Noroeste 11 Norte 0 934.8 -0.6 56
2019-10-04 03:00:00 13.4 3 Oeste 12 Este 0 935.1 -0.3 55
2019-10-04 02:00:00 13.7 8 Nordeste 12 Nordeste 0 935 -0.3 53
2019-10-04 01:00:00 14.4 7 Este 9 Nordeste 0 935.4 0.6 51
2019-10-04 00:00:00 15.2 2 Sudoeste 6 Este 0 935.4 0.8 49
2019-10-03 23:00:00 16.6 3 Nordeste 5 Nordeste 0 935.3 1 45
2019-10-03 22:00:00 17.7 0 Calma 7 Sur 0 934.8 0.8 44
2019-10-03 21:00:00 19.1 2 Oeste 12 Sur 0 934.6 0.5 40
2019-10-03 20:00:00 21.9 4 Sur 13 Sudoeste 0 934.3 0 34
2019-10-03 19:00:00 24.1 10 Sudoeste 18 Sudoeste 0 934 -0.7 28
2019-10-03 18:00:00 25.5 9 Oeste 16 Oeste 0 934.1 -0.8 27
2019-10-03 17:00:00 25.3 7 Sudoeste 16 Oeste 0 934.3 -1.2 26
2019-10-03 16:00:00 23.6 5 Noroeste 14 Noroeste 0 934.7 -1.4 28
2019-10-03 15:00:00 23.2 6 Noroeste 14 Oeste 0 934.9 -1.5 29
2019-10-03 14:00:00 21.4 4 Sudoeste 13 Sudoeste 0 935.5 -1.3 35
2019-10-03 13:00:00 19.1 5 Noroeste 12 Noroeste 0 936.1 -0.5 44
2019-10-03 12:00:00 17.4 5 Sudoeste 10 Sudoeste 0 936.4 0.4 50
2019-10-03 11:00:00 14.7 3 Oeste 7 Noroeste 0 936.8 1.1 58
2019-10-03 10:00:00 12.6 2 Noroeste 5 Este 0 936.6 1.2 65
2019-10-03 09:00:00 9.7 0 Calma 6 Sudeste 0 936 0.6 77
2019-10-03 08:00:00 9.3 2 Norte 8 Este 0 935.7 0.7 77
2019-10-03 07:00:00 9.7 2 Noroeste 7 Este 0 935.4 0.1 75
2019-10-03 06:00:00 11 2 Este 13 Nordeste 0 935.4 -0.1 70
2019-10-03 05:00:00 12.4 5 Norte 13 Nordeste 0 935 -0.7 65
2019-10-03 04:00:00 13 8 Nordeste 22 Este 0 935.3 -0.9 63
2019-10-03 03:00:00 13.8 14 Este 27 Este 0 935.5 -0.8 60
2019-10-03 02:00:00 14.2 17 Este 27 Nordeste 0 935.7 -0.3 58
2019-10-03 01:00:00 14.4 16 Este 24 Este 0 936.2 0.5 55
2019-10-03 00:00:00 14.5 10 Nordeste 16 Este 0 936.3 0.9 54
2019-10-02 23:00:00 15.6 5 Nordeste 15 Nordeste 0 936 1.1 50
2019-10-02 22:00:00 16.9 8 Nordeste 13 Nordeste 0 935.7 1.2 48
2019-10-02 21:00:00 17.7 6 Nordeste 13 Nordeste 0 935.4 1.3 44
2019-10-02 20:00:00 20.1 6 Nordeste 23 Nordeste 0 934.9 0.7 39
2019-10-02 19:00:00 21.6 8 Nordeste 24 Nordeste 0 934.5 0.3 35
2019-10-02 18:00:00 22.5 11 Nordeste 23 Nordeste 0 934.1 -0.1 33
2019-10-02 17:00:00 22.8 14 Nordeste 37 Nordeste 0 934.2 -0.5 32
2019-10-02 16:00:00 22.5 13 Nordeste 26 Nordeste 0 934.2 -0.5 32
2019-10-02 15:00:00 22.4 9 Nordeste 25 Nordeste 0 934.2 -1.1 32
2019-10-02 14:00:00 21.1 8 Norte 29 Norte 0 934.7 -0.6 34
2019-10-02 13:00:00 20.7 6 Norte 24 Nordeste 0 934.7 0.4 35
2019-10-02 12:00:00 18.5 13 Nordeste 24 Nordeste 0 935.3 1.5 42
2019-10-02 11:00:00 17 13 Nordeste 27 Este 0 935.3 1.9 49
2019-10-02 10:00:00 16.1 9 Nordeste 21 Nordeste 0 934.3 1.8 53
2019-10-02 09:00:00 13.8 9 Nordeste 18 Nordeste 0 933.8 1.4 63
2019-10-02 08:00:00 14.1 11 Nordeste 18 Nordeste 0 933.4 1.1 60
2019-10-02 07:00:00 13.8 11 Nordeste 17 Este 0 932.5 0.2 62
2019-10-02 06:00:00 14.3 5 Norte 25 Este 0 932.4 0.1 62
2019-10-02 05:00:00 14.3 4 Sudeste 15 Noroeste 0 932.3 -0.1 63
2019-10-02 04:00:00 16.3 6 Noroeste 17 Noroeste 0 932.3 -0.2 57
2019-10-02 03:00:00 13.8 3 Este 6 Sur 0 932.3 -0.4 63
2019-10-02 02:00:00 15.3 2 Sur 8 Norte 0 932.4 0.1 58
2019-10-02 01:00:00 16.7 4 Sudoeste 10 Norte 0 932.5 0.7 55
2019-10-02 00:00:00 17 4 Sur 10 Noroeste 0 932.7 1.5 53
2019-10-01 23:00:00 17.7 3 Sur 7 Nordeste 0 932.3 1.4 53
2019-10-01 22:00:00 18.9 3 Sudoeste 13 Norte 0 931.8 1.4 49
2019-10-01 21:00:00 21.2 7 Norte 17 Norte 0 931.2 1 43
2019-10-01 20:00:00 22.8 10 Noroeste 24 Noroeste 0 930.9 0.9 40
2019-10-01 19:00:00 24.8 8 Norte 24 Noroeste 0 930.4 0.2 35
2019-10-01 18:00:00 25.6 15 Noroeste 28 Noroeste 0 930.2 -0.3 29
2019-10-01 17:00:00 27.1 8 Noroeste 22 Noroeste 0 930 -1 29
2019-10-01 16:00:00 27.2 11 Oeste 23 Oeste 0 930.2 -1.3 29
2019-10-01 15:00:00 25.9 10 Sudoeste 19 Oeste 0 930.5 -1.3 28
2019-10-01 14:00:00 24.9 11 Sudoeste 19 Sudoeste 0 931 -0.6 28
2019-10-01 13:00:00 23.7 5 Sudoeste 13 Oeste 0 931.5 0.2 29
2019-10-01 12:00:00 21.1 3 Norte 10 Noroeste 0 931.8 0.4 37
2019-10-01 11:00:00 19.1 3 Noroeste 10 Noroeste 0 931.6 0.8 43
2019-10-01 10:00:00 16.9 2 Noroeste 7 Sudeste 0 931.3 0.9 47
2019-10-01 09:00:00 12.4 3 Nordeste 6 Este 0 931.4 0.9 57
2019-10-01 08:00:00 12.1 3 Este 5 Nordeste 0 930.8 -0.1 56
2019-10-01 07:00:00 12.9 3 Norte 5 Nordeste 0 930.4 -1 54
2019-10-01 06:00:00 12.9 6 Nordeste 8 Nordeste 0 930.5 -1.5 52
2019-10-01 05:00:00 13.7 3 Noroeste 5 Este 0 930.9 -1.2 51
2019-10-01 04:00:00 14 4 Este 6 Norte 0 931.4 -0.7 49
2019-10-01 03:00:00 15.2 3 Norte 7 Norte 0 932 -0.4 44
2019-10-01 02:00:00 16.1 4 Sudeste 8 Este 0 932.1 -0.3 44
2019-10-01 01:00:00 18.5 2 Noroeste 12 Sur 0 932.1 -0.3 41
2019-10-01 00:00:00 19 7 Sur 10 Sur 0 932.4 0.3 35
2019-09-30 23:00:00 20.1 7 Sudoeste 11 Sur 0 932.4 0.3 34
2019-09-30 22:00:00 21.1 9 Sur 13 Sur 0 932.4 0.2 32
2019-09-30 21:00:00 22.8 10 Sur 14 Sur 0 932.1 -0.3 28
2019-09-30 20:00:00 25.6 6 Sur 18 Sudoeste 0 932.1 -0.7 24
2019-09-30 19:00:00 27.9 12 Sudoeste 26 Sudoeste 0 932.2 -1.2 20
2019-09-30 18:00:00 28.8 12 Oeste 27 Oeste 0 932.4 -1.4 19
2019-09-30 17:00:00 28.8 18 Sudoeste 31 Sudoeste 0 932.8 -1.7 20
2019-09-30 16:00:00 29 15 Sudoeste 27 Oeste 0 933.4 -1.7 20
2019-09-30 15:00:00 28.9 11 Oeste 21 Oeste 0 933.8 -1.7 22
2019-09-30 14:00:00 27.7 8 Noroeste 18 Oeste 0 934.5 -1.1 24
2019-09-30 13:00:00 25.7 4 Noroeste 10 Noroeste 0 935.1 -0.4 33
2019-09-30 12:00:00 22.7 4 Noroeste 10 Norte 0 935.5 0.3 40
2019-09-30 11:00:00 20 4 Nordeste 7 Norte 0 935.6 0.8 42
2019-09-30 10:00:00 16.9 3 Nordeste 5 Nordeste 0 935.5 1 47
2019-09-30 09:00:00 12.7 3 Este 5 Sudeste 0 935.2 0.8 57
2019-09-30 08:00:00 12.4 3 Este 5 Este 0 934.8 0.1 56
2019-09-30 07:00:00 12.7 0 Calma 5 Noroeste 0 934.5 -0.5 55
2019-09-30 06:00:00 13.1 3 Nordeste 7 Nordeste 0 934.4 -0.6 50
2019-09-30 05:00:00 13.5 0 Calma 7 Sur 0 934.7 -0.4 52
2019-09-30 04:00:00 14.3 2 Este 4 Nordeste 0 935 -0.1 48
2019-09-30 03:00:00 15 0 Calma 6 Este 0 935 -0.2 48
2019-09-30 02:00:00 16.2 4 Sudoeste 11 Sur 0 935.1 0.3 41
2019-09-30 01:00:00 17.6 3 Nordeste 12 Sudeste 0 935.1 0.4 36
2019-09-30 00:00:00 19 3 Norte 10 Sudoeste 0 935.2 1 35
2019-09-29 23:00:00 20.7 6 Sur 12 Sur 0 934.8 0.9 29
2019-09-29 22:00:00 21.3 8 Sur 13 Sur 0 934.7 0.9 28
2019-09-29 21:00:00 22.8 9 Sur 13 Sur 0 934.2 0.2 27
2019-09-29 20:00:00 26.1 7 Sur 18 Sudoeste 0 933.9 -0.4 24
2019-09-29 19:00:00 28.5 10 Sudoeste 18 Oeste 0 933.8 -0.9 21
2019-09-29 18:00:00 29.3 10 Oeste 21 Oeste 0 934 -1.4 22
2019-09-29 17:00:00 29.2 10 Sudoeste 24 Oeste 0 934.3 -1.7 22
2019-09-29 16:00:00 28.9 13 Oeste 30 Sudoeste 0 934.7 -1.4 23
2019-09-29 15:00:00 28.2 12 Oeste 27 Sudoeste 0 935.4 -1 26
2019-09-29 14:00:00 27 12 Oeste 25 Oeste 0 936 -0.2 30
2019-09-29 13:00:00 25.2 4 Sudoeste 11 Sudoeste 0 936.1 0.1 41
2019-09-29 12:00:00 22.1 3 Oeste 8 Noroeste 0 936.4 0.6 49
2019-09-29 11:00:00 19.6 3 Noroeste 9 Noroeste 0 936.2 0.7 50
2019-09-29 10:00:00 17.3 3 Este 9 Nordeste 0 936 0.7 57
2019-09-29 09:00:00 12.1 5 Nordeste 13 Norte 0 935.8 0.5 64
2019-09-29 08:00:00 11.9 2 Noroeste 6 Norte 0 935.5 0.3 68
2019-09-29 07:00:00 12 3 Este 6 Norte 0 935.3 0 66
2019-09-29 06:00:00 12.4 4 Norte 8 Este 0 935.3 -0.4 53
2019-09-29 05:00:00 13.2 3 Nordeste 9 Noroeste 0 935.2 -0.7 47
2019-09-29 04:00:00 13.5 5 Este 8 Nordeste 0 935.3 -0.6 46
2019-09-29 03:00:00 14.2 3 Nordeste 9 Nordeste 0 935.7 -0.1 44
2019-09-29 02:00:00 15.4 3 Norte 8 Norte 0 935.9 0.3 40
2019-09-29 01:00:00 16.5 4 Este 5 Este 0 935.9 0.2 37
2019-09-29 00:00:00 18.6 3 Sudoeste 10 Sur 0 935.8 0.3 31
2019-09-28 23:00:00 18.7 8 Sur 11 Sudeste 0 935.6 0.3 30
2019-09-28 22:00:00 19.1 6 Sur 11 Sur 0 935.7 0.3 32
2019-09-28 21:00:00 20.8 6 Sur 10 Sur 0 935.5 0.1 32
2019-09-28 20:00:00 25 6 Sur 17 Oeste 0 935.3 -0.3 25
2019-09-28 19:00:00 27.6 9 Oeste 19 Oeste 0 935.4 -0.6 20
2019-09-28 18:00:00 28.1 11 Oeste 22 Sudoeste 0 935.4 -1.1 20
2019-09-28 17:00:00 28.1 12 Sudoeste 26 Oeste 0 935.6 -1.6 20
2019-09-28 16:00:00 28.1 8 Sudoeste 22 Oeste 0 936 -1.6 23
2019-09-28 15:00:00 27.3 10 Oeste 26 Oeste 0 936.5 -1.4 24
2019-09-28 14:00:00 26.5 10 Sudoeste 21 Sudoeste 0 937.2 -0.8 25
2019-09-28 13:00:00 25 5 Oeste 12 Sudoeste 0 937.6 0.1 31
2019-09-28 12:00:00 22.5 3 Norte 7 Nordeste 0 937.9 1 41
2019-09-28 11:00:00 19.2 5 Nordeste 10 Nordeste 0 938 1.5 52
2019-09-28 10:00:00 15.7 4 Nordeste 9 Este 0 937.5 1 58
2019-09-28 09:00:00 11.9 2 Nordeste 5 Este 0 936.9 0.6 66
2019-09-28 08:00:00 11.3 2 Este 7 Nordeste 0 936.5 0.2 66
2019-09-28 07:00:00 11.8 2 Este 8 Este 0 936.5 -0.1 63
2019-09-28 06:00:00 12.9 4 Norte 8 Norte 0 936.3 -0.2 57
2019-09-28 05:00:00 13 4 Norte 8 Sudeste 0 936.3 -0.1 56
2019-09-28 04:00:00 14.3 2 Norte 12 Noroeste 0 936.6 0.2 53
2019-09-28 03:00:00 16.7 3 Oeste 15 Nordeste 0 936.5 0.3 43
2019-09-28 02:00:00 16.5 3 Norte 10 Norte 0 936.4 0.4 43
2019-09-28 01:00:00 17 4 Norte 6 Nordeste 0 936.4 0.8 39
2019-09-28 00:00:00 18 5 Este 8 Sudeste 0 936.2 1.3 37
2019-09-27 23:00:00 19.8 5 Este 8 Nordeste 0 936 1.3 35
2019-09-27 22:00:00 21.2 8 Este 15 Norte 0 935.6 1 37
2019-09-27 21:00:00 22.5 9 Sur 13 Sudeste 0 934.9 0.5 34
2019-09-27 20:00:00 25.5 6 Sur 14 Sudoeste 0 934.7 0.1 30
2019-09-27 19:00:00 27.5 8 Oeste 19 Sur 0 934.6 -0.2 26
2019-09-27 18:00:00 28.1 9 Oeste 24 Sudoeste 0 934.4 -0.9 26
2019-09-27 17:00:00 28.3 12 Sudoeste 22 Oeste 0 934.6 -1.5 27
2019-09-27 16:00:00 28.1 7 Sudoeste 23 Sudoeste 0 934.8 -1.4 27
2019-09-27 15:00:00 27.2 9 Sudoeste 25 Oeste 0 935.3 -1.4 28
2019-09-27 14:00:00 26.3 5 Oeste 11 Oeste 0 936.1 -0.7 32
2019-09-27 13:00:00 24.9 3 Oeste 12 Oeste 0 936.2 -0.2 37
2019-09-27 12:00:00 22.5 4 Sudoeste 10 Noroeste 0 936.7 1.1 45
2019-09-27 11:00:00 20.6 2 Nordeste 6 Nordeste 0 936.8 1 51
2019-09-27 10:00:00 16.7 2 Norte 12 Norte 0 936.4 0.8 62
2019-09-27 09:00:00 14.1 3 Este 10 Norte 0 935.6 0 73
2019-09-27 08:00:00 13.3 5 Este 6 Este 0 935.8 0.4 74
2019-09-27 07:00:00 13.8 4 Sudeste 8 Norte 0 935.6 0.1 72
2019-09-27 06:00:00 14.2 3 Este 6 Este 0 935.6 -0.1 70
2019-09-27 05:00:00 15.1 4 Nordeste 7 Norte 0 935.4 -0.5 67
2019-09-27 04:00:00 15.3 5 Este 10 Norte 0 935.5 -0.6 66
2019-09-27 03:00:00 16.1 3 Este 6 Noroeste 0 935.7 -0.3 63
2019-09-27 02:00:00 17.1 3 Norte 6 Sur 0 935.9 0.1 59
2019-09-27 01:00:00 18.1 6 Nordeste 9 Sur 0 936.1 0.4 54
2019-09-27 00:00:00 19.4 3 Sur 10 Sur 0 936 0.8 52
2019-09-26 23:00:00 19.6 7 Sur 12 Sur 0 935.8 0.9 50
2019-09-26 22:00:00 20.4 6 Sur 10 Sur 0 935.7 1 48
2019-09-26 21:00:00 21.9 8 Sur 12 Sudoeste 0 935.2 0.3 43
2019-09-26 20:00:00 24.9 7 Sudoeste 16 Sudoeste 0 934.9 -0.2 34
2019-09-26 19:00:00 26.6 9 Sudoeste 18 Sudoeste 0 934.7 -0.7 31
2019-09-26 18:00:00 27.2 8 Oeste 23 Oeste 0 934.9 -0.8 31
2019-09-26 17:00:00 27.1 11 Oeste 24 Sudoeste 0 935.1 -1.1 31
2019-09-26 16:00:00 26.6 10 Oeste 24 Sudoeste 0 935.4 -1.2 32
2019-09-26 15:00:00 26 13 Sudoeste 24 Oeste 0 935.7 -1.4 35
2019-09-26 14:00:00 25 12 Oeste 23 Oeste 0 936.2 -1 37
2019-09-26 13:00:00 23.7 10 Oeste 21 Oeste 0 936.6 -0.1 39
2019-09-26 12:00:00 21.6 3 Noroeste 9 Norte 0 937.1 0.9 47
2019-09-26 11:00:00 18.6 5 Norte 9 Norte 0 937.2 1.3 56
2019-09-26 10:00:00 16 5 Norte 8 Norte 0 936.7 1.3 65
2019-09-26 09:00:00 13.3 2 Norte 8 Norte 0 936.2 1 73
2019-09-26 08:00:00 12.8 5 Norte 10 Norte 0 935.9 0.7 75
2019-09-26 07:00:00 12.9 2 Norte 8 Norte 0 935.4 0 75
2019-09-26 06:00:00 13.9 3 Norte 13 Nordeste 0 935.2 -0.3 70
2019-09-26 05:00:00 14.7 6 Nordeste 12 Nordeste 0 935.2 -0.4 66
2019-09-26 04:00:00 15.9 4 Nordeste 12 Nordeste 0 935.4 -0.1 61
2019-09-26 03:00:00 16.4 7 Norte 15 Norte 0 935.5 0.2 59
2019-09-26 02:00:00 16.7 6 Norte 14 Nordeste 0 935.6 0.6 58
2019-09-26 01:00:00 17 7 Nordeste 13 Este 0 935.5 0.8 56
2019-09-26 00:00:00 17 4 Nordeste 8 Sur 0 935.3 1 58
2019-09-25 23:00:00 18 3 Este 5 Este 0 935 1.2 53
2019-09-25 22:00:00 19.2 4 Sudeste 8 Sur 0 934.7 1.1 51
2019-09-25 21:00:00 20.8 3 Sur 8 Oeste 0 934.3 0.8 48
2019-09-25 20:00:00 22.5 4 Noroeste 16 Noroeste 0 933.8 0.3 41
2019-09-25 19:00:00 23.6 8 Noroeste 14 Noroeste 0 933.6 -0.4 35
2019-09-25 18:00:00 24.4 8 Norte 17 Noroeste 0 933.5 -1 32
2019-09-25 17:00:00 24.3 8 Norte 19 Noroeste 0 933.5 -1.6 32
2019-09-25 16:00:00 24.4 5 Noroeste 13 Oeste 0 934 -1.4 34
2019-09-25 15:00:00 23 5 Nordeste 14 Noroeste 0 934.5 -1 36
2019-09-25 14:00:00 22.1 5 Noroeste 12 Noroeste 0 935.1 -0.2 40
2019-09-25 13:00:00 20.7 6 Noroeste 13 Noroeste 0 935.4 0.4 43
2019-09-25 12:00:00 20.5 4 Nordeste 17 Nordeste 0 935.5 1 44
2019-09-25 11:00:00 18.9 9 Este 15 Norte 0 935.3 1.6 50
2019-09-25 10:00:00 17 9 Nordeste 17 Este 0 935 1.4 59
2019-09-25 09:00:00 14.4 4 Nordeste 9 Nordeste 0 934.5 1 69
2019-09-25 08:00:00 13.5 5 Nordeste 8 Nordeste 0 933.7 0.1 73
2019-09-25 07:00:00 13.6 3 Sur 8 Sudeste 0 933.6 -0.2 74
2019-09-25 06:00:00 15.2 4 Sur 10 Noroeste 0 933.5 -0.3 69
2019-09-25 05:00:00 17.1 2 Noroeste 15 Norte 0 933.6 -0.1 61
2019-09-25 04:00:00 17.8 3 Nordeste 16 Norte 0 933.8 -0.3 62
2019-09-25 03:00:00 18.8 8 Noroeste 19 Norte 0 933.8 -0.2 58
2019-09-25 02:00:00 17.8 0 Calma 6 Sur 0 933.7 -0.3 70
2019-09-25 01:00:00 19.3 0 Calma 9 Noroeste 0 934.1 0.2 67
2019-09-25 00:00:00 20.6 2 Norte 13 Norte 0 934 0.6 61
2019-09-24 23:00:00 21.1 6 Norte 13 Nordeste 0 934 0.9 62
2019-09-24 22:00:00 21.9 8 Norte 18 Nordeste 0 933.9 1 62
2019-09-24 21:00:00 23.4 8 Sudoeste 19 Sudoeste 0 933.4 0.3 51
2019-09-24 20:00:00 24.4 11 Sudoeste 22 Sudoeste 0 933.1 -0.4 47
2019-09-24 19:00:00 25.8 13 Oeste 28 Sudoeste 0 932.9 -1.2 38
2019-09-24 18:00:00 26.4 17 Sudoeste 36 Sudoeste 0 933.1 -1.6 33
2019-09-24 17:00:00 26.6 18 Sudoeste 33 Oeste 0 933.5 -2.1 34
2019-09-24 16:00:00 26.1 16 Sudoeste 28 Oeste 0 934.1 -2.2 36
2019-09-24 15:00:00 24.6 17 Oeste 28 Sudoeste 0 934.7 -1.9 40
2019-09-24 14:00:00 23.1 15 Sudoeste 23 Sudoeste 0 935.6 -1.2 43
2019-09-24 13:00:00 21.9 13 Sudoeste 23 Oeste 0 936.3 0 44
2019-09-24 12:00:00 20.7 11 Oeste 22 Sudoeste 0 936.6 0.7 46
2019-09-24 11:00:00 19.3 4 Oeste 11 Oeste 0 936.8 1.2 51
2019-09-24 10:00:00 16.6 4 Noroeste 6 Noroeste 0 936.3 0.6 62
2019-09-24 09:00:00 14 2 Oeste 10 Sur 0 935.9 0.6 73
2019-09-24 08:00:00 12.7 7 Sur 12 Sur 0 935.6 -0.1 72
2019-09-24 07:00:00 13.2 2 Sudoeste 9 Sur 0 935.7 -0.3 72
2019-09-24 06:00:00 14 6 Sur 11 Sur 0 935.3 -1.1 68
2019-09-24 05:00:00 14.8 8 Sur 13 Sur 0 935.7 -0.9 65
2019-09-24 04:00:00 15 8 Sur 12 Sur 0 936 -0.8 64
2019-09-24 03:00:00 15.6 9 Sur 12 Sur 0 936.4 -0.6 60
2019-09-24 02:00:00 15.5 5 Sur 9 Sur 0 936.6 -0.7 59
2019-09-24 01:00:00 16.4 4 Sur 10 Sur 0 936.8 -0.2 58
2019-09-24 00:00:00 17.3 8 Sur 12 Sur 0 937 0.1 53
2019-09-23 23:00:00 18 7 Sur 14 Sur 0 937.3 0.8 54
2019-09-23 22:00:00 18.5 9 Sur 14 Sur 0 937 0.6 53
2019-09-23 21:00:00 19 8 Sur 12 Sur 0 936.9 0.6 53
2019-09-23 20:00:00 20.9 6 Sudoeste 13 Sudoeste 0 936.5 0.2 46
2019-09-23 19:00:00 22.1 9 Sudoeste 18 Sudoeste 0 936.4 -0.2 42
2019-09-23 18:00:00 22.3 10 Sudoeste 18 Sudoeste 0 936.3 -0.4 43
2019-09-23 17:00:00 22.8 8 Oeste 22 Sudoeste 0 936.3 -0.6 39
2019-09-23 16:00:00 22.6 10 Noroeste 24 Oeste 0 936.6 -0.7 38
2019-09-23 15:00:00 22.9 8 Oeste 22 Sudoeste 0 936.7 -0.7 40
2019-09-23 14:00:00 21.9 7 Oeste 22 Oeste 0 936.9 -0.8 44
2019-09-23 13:00:00 21 7 Oeste 16 Noroeste 0 937.3 0.4 46
2019-09-23 12:00:00 19.6 5 Sudoeste 9 Oeste 0 937.4 0.5 55
2019-09-23 11:00:00 17 2 Oeste 9 Noroeste 0 937.7 1.2 64
2019-09-23 10:00:00 15.3 2 Nordeste 6 Este 0 936.9 1.1 66
2019-09-23 09:00:00 11.6 2 Sur 4 Sur 0 936.9 1.2 79
2019-09-23 08:00:00 10.4 0 Calma 4 Nordeste 0 936.5 1.3 84
2019-09-23 07:00:00 10.8 4 Este 5 Este 0 935.8 0.7 81
2019-09-23 06:00:00 11.1 4 Este 9 Nordeste 0 935.7 0.6 79
2019-09-23 05:00:00 11.8 3 Nordeste 5 Noroeste 0 935.2 0.2 77
2019-09-23 04:00:00 12.3 0 Calma 5 Sudeste 0 935.1 0.3 74
2019-09-23 03:00:00 13.1 3 Sudoeste 4 Sudoeste 0 935.1 0.6 74
2019-09-23 02:00:00 14.4 0 Calma 5 Sudeste 0 935 0.5 69
2019-09-23 01:00:00 14.1 4 Sudeste 8 Sur 0 934.8 1.2 65
2019-09-23 00:00:00 14.3 3 Sur 8 Sudeste 0 934.5 1.6 65
2019-09-22 23:00:00 16.1 2 Sudeste 7 Sur 0 934.5 2.4 59
2019-09-22 22:00:00 18 4 Este 13 Nordeste 0 933.6 1.9 52
2019-09-22 21:00:00 18.6 6 Este 19 Norte 0 932.9 1.5 52
2019-09-22 20:00:00 20.9 8 Norte 22 Oeste 0 932.1 1 42
2019-09-22 19:00:00 22.6 10 Oeste 25 Oeste 0 931.7 0.6 34
2019-09-22 18:00:00 23 12 Oeste 25 Sudoeste 0 931.4 0.1 35
2019-09-22 17:00:00 22.9 11 Oeste 23 Sudoeste 0 931.1 0 39
2019-09-22 16:00:00 23 14 Sudoeste 26 Sudoeste 0 931.1 -0.1 42
2019-09-22 15:00:00 22 15 Oeste 28 Oeste 0 931.3 0.1 45
2019-09-22 14:00:00 21.5 13 Oeste 34 Sudoeste 0 931.1 0 51
2019-09-22 13:00:00 20.8 19 Oeste 33 Sudoeste 0 931.2 0.5 61
2019-09-22 12:00:00 19.6 17 Sudoeste 33 Oeste 0 931.2 0.7 68
2019-09-22 11:00:00 18.2 15 Sudoeste 41 Sudoeste 0.2 931.1 1.4 82
2019-09-22 10:00:00 17.5 18 Sudoeste 31 Sur 0 930.7 1.6 87
2019-09-22 09:00:00 16.1 9 Sudoeste 27 Sudoeste 0.4 930.5 1 97
2019-09-22 08:00:00 16.2 18 Sudoeste 28 Sudoeste 0 929.7 0.4 93
2019-09-22 07:00:00 16.6 13 Sur 26 Sur 0 929.1 -0.2 89
2019-09-22 06:00:00 16.6 9 Sudoeste 32 Sudoeste 0 929.5 -0.3 90
2019-09-22 05:00:00 17.8 17 Sudoeste 30 Sudoeste 0 929.3 -0.4 78
2019-09-22 04:00:00 17.7 15 Sudoeste 31 Sur 0 929.3 -0.7 79
2019-09-22 03:00:00 17.7 10 Sudoeste 22 Sudoeste 0 929.8 -0.5 84
2019-09-22 02:00:00 17.6 6 Sudoeste 13 Sudoeste 0 929.7 -0.5 88
2019-09-22 01:00:00 17.3 8 Sur 11 Sudoeste 0 930 -0.1 90
2019-09-22 00:00:00 17.6 5 Sudoeste 10 Sudoeste 0 930.3 0.8 88
2019-09-21 23:00:00 18 4 Noroeste 8 Noroeste 0 930.2 0.7 87
2019-09-21 22:00:00 18.3 5 Noroeste 10 Norte 0 930.1 0.4 85
2019-09-21 21:00:00 18.9 3 Sudoeste 5 Sudoeste 0 929.5 0.1 86
2019-09-21 20:00:00 19 5 Sudoeste 22 Sudoeste 0 929.5 -0.4 84
2019-09-21 19:00:00 19.8 15 Sudoeste 30 Sudoeste 0 929.7 -0.4 77
2019-09-21 18:00:00 20.4 12 Sudoeste 25 Sudoeste 0 929.4 -1 72
2019-09-21 17:00:00 20.4 10 Sudoeste 21 Sudoeste 0 929.9 -0.9 70
2019-09-21 16:00:00 20.8 8 Oeste 24 Sudoeste 0 930.1 -0.8 65
2019-09-21 15:00:00 20.9 13 Sudoeste 32 Sudoeste 0 930.4 -0.8 60
2019-09-21 14:00:00 20.9 13 Sudoeste 24 Sudoeste 0 930.8 -0.2 62
2019-09-21 13:00:00 20.7 12 Sudoeste 24 Sudoeste 0 930.9 -0.2 63
2019-09-21 12:00:00 20 13 Sudoeste 26 Sudoeste 0 931.2 0.5 67
2019-09-21 11:00:00 20 12 Sudoeste 23 Oeste 0 931 0 65
2019-09-21 10:00:00 18 10 Sur 19 Sur 0 931.1 0.5 79
2019-09-21 09:00:00 16.6 12 Sudeste 24 Sudeste 0 930.7 0.1 86
2019-09-21 08:00:00 16.2 9 Sur 20 Sur 0 931 0.3 86
2019-09-21 07:00:00 16.1 12 Sur 28 Sur 0 930.6 0 88
2019-09-21 06:00:00 16.7 10 Sur 22 Sur 0 930.6 -0.5 85
2019-09-21 05:00:00 17.1 6 Sudoeste 27 Sur 0 930.7 -0.4 83
2019-09-21 04:00:00 17.5 15 Sur 30 Sur 0 930.6 -0.6 81
2019-09-21 03:00:00 17.7 11 Sur 31 Sur 0 931.1 -0.8 80
2019-09-21 02:00:00 17.6 4 Sudeste 12 Nordeste 0 931.1 -0.4 78
2019-09-21 01:00:00 17.6 4 Nordeste 12 Nordeste 0 931.2 0.1 76
2019-09-21 00:00:00 18.4 6 Norte 14 Norte 0 931.9 0.9 69
2019-09-20 23:00:00 19 6 Sudoeste 49 Sur 0 931.5 1.5 64
2019-09-20 22:00:00 21.6 25 Sur 46 Sur 0 931.1 0.8 63
2019-09-20 21:00:00 22.4 24 Sur 42 Sur 0 931 0.4 61
2019-09-20 20:00:00 23 18 Sur 40 Sur 0 930 -1.1 58
2019-09-20 19:00:00 23.9 20 Sur 40 Sur 0 930.3 -1.6 55
2019-09-20 18:00:00 24.8 18 Sur 38 Sur 0 930.6 -2 50
2019-09-20 17:00:00 24.8 23 Sur 34 Sur 0 931.1 -1.8 49
2019-09-20 16:00:00 24.7 15 Sur 27 Sudoeste 0 931.9 -1.4 51
2019-09-20 15:00:00 24.1 12 Sur 25 Sur 0 932.6 -1.4 53
2019-09-20 14:00:00 24.9 12 Sudeste 24 Sudoeste 0 932.9 -1.4 50
2019-09-20 13:00:00 24.5 13 Sur 25 Sur 0 933.3 -0.8 53
2019-09-20 12:00:00 22.9 11 Sur 24 Sur 0 934 0.3 58
2019-09-20 11:00:00 20.3 9 Sur 17 Sudeste 0 934.3 0.9 70
2019-09-20 10:00:00 17.1 6 Noroeste 10 Noroeste 0 934.1 0.8 86
2019-09-20 09:00:00 18 4 Norte 10 Este 0 933.7 0.7 76
2019-09-20 08:00:00 17.2 4 Nordeste 6 Este 0 933.4 0.3 81
2019-09-20 07:00:00 17.5 5 Nordeste 8 Norte 0 933.3 0.1 79
2019-09-20 06:00:00 18.5 4 Nordeste 17 Nordeste 0 933 -0.2 74
2019-09-20 05:00:00 18.5 4 Nordeste 12 Nordeste 0 933.1 -0.2 72
2019-09-20 04:00:00 19 5 Nordeste 32 Sudeste 0 933.2 -0.2 69
2019-09-20 03:00:00 19.6 21 Sudeste 33 Sudeste 0 933.2 -0.5 65
2019-09-20 02:00:00 20 21 Sudeste 33 Sudeste 0 933.3 -0.5 64
2019-09-20 01:00:00 20.3 21 Sudeste 31 Sudeste 0 933.4 0.1 61
2019-09-20 00:00:00 20.7 13 Sudeste 21 Sudeste 0 933.7 1.2 58
2019-09-19 23:00:00 21.6 3 Norte 14 Sudeste 0 933.8 1.5 53
2019-09-19 22:00:00 22.1 9 Sudeste 27 Este 0 933.3 1.3 51
2019-09-19 21:00:00 22.8 4 Este 14 Nordeste 0 932.5 0.4 53
2019-09-19 20:00:00 24.8 9 Nordeste 17 Nordeste 0 932.3 0 45
2019-09-19 19:00:00 28 5 Norte 17 Sudoeste 0 932 -0.6 37
2019-09-19 18:00:00 28 7 Oeste 19 Sudoeste 0 932.1 -1.1 33
2019-09-19 17:00:00 29 9 Sudoeste 23 Oeste 0 932.3 -1.5 33
2019-09-19 16:00:00 28.3 12 Oeste 23 Sudoeste 0 932.6 -1.6 35
2019-09-19 15:00:00 28.2 10 Sudoeste 21 Oeste 0 933.2 -1.4 36
2019-09-19 14:00:00 27.1 4 Noroeste 13 Oeste 0 933.8 -1 44
2019-09-19 13:00:00 25.5 4 Oeste 10 Oeste 0 934.2 -0.3 47
2019-09-19 12:00:00 23.1 5 Noroeste 9 Noroeste 0 934.6 0.6 55
2019-09-19 11:00:00 20.6 4 Norte 7 Nordeste 0 934.8 0.9 64
2019-09-19 10:00:00 18 3 Norte 6 Nordeste 0 934.5 0.9 71
2019-09-19 09:00:00 15.8 3 Nordeste 5 Nordeste 0 934 0.5 80
2019-09-19 08:00:00 14.9 2 Norte 10 Nordeste 0 933.9 0.2 85
2019-09-19 07:00:00 15.3 0 Calma 6 Norte 0 933.6 -0.1 81
2019-09-19 06:00:00 15.4 2 Noroeste 6 Este 0 933.5 -0.5 83
2019-09-19 05:00:00 15.7 4 Este 8 Nordeste 0.2 933.7 -0.4 80
2019-09-19 04:00:00 16.3 3 Noroeste 5 Nordeste 0 933.7 -0.4 80
2019-09-19 03:00:00 17.7 3 Norte 13 Nordeste 0 934 -0.2 74
2019-09-19 02:00:00 18.1 7 Nordeste 12 Nordeste 0 934.1 0 70
2019-09-19 01:00:00 19.4 9 Nordeste 15 Nordeste 0 934.1 0.4 65
2019-09-19 00:00:00 19.5 4 Norte 10 Norte 0 934.2 1 63
2019-09-18 23:00:00 19.7 4 Norte 12 Norte 0 934.1 1.3 62
2019-09-18 22:00:00 20.5 2 Sur 6 Sudeste 0 933.7 1.1 59
2019-09-18 21:00:00 22.2 4 Sur 8 Sur 0 933.2 0.7 54
2019-09-18 20:00:00 25.2 4 Oeste 14 Sudoeste 0 932.8 0.1 40
2019-09-18 19:00:00 27 3 Noroeste 9 Noroeste 0 932.6 -0.6 35
2019-09-18 18:00:00 27.5 3 Oeste 9 Noroeste 0 932.5 -1.2 34
2019-09-18 17:00:00 26.4 5 Norte 13 Noroeste 0 932.7 -1.4 37
2019-09-18 16:00:00 25.6 8 Noroeste 18 Noroeste 0 933.2 -1.2 40
2019-09-18 15:00:00 24.9 6 Noroeste 12 Noroeste 0 933.7 -1 42
2019-09-18 14:00:00 23.8 5 Noroeste 11 Noroeste 0 934.1 -0.5 53
2019-09-18 13:00:00 20.9 4 Norte 8 Norte 0 934.4 0.2 65
2019-09-18 12:00:00 18.8 3 Nordeste 8 Nordeste 0 934.7 1.1 79
2019-09-18 11:00:00 17.9 4 Norte 8 Nordeste 0 934.6 1.2 79
2019-09-18 10:00:00 16.6 6 Nordeste 11 Nordeste 0 934.2 1.5 84
2019-09-18 09:00:00 15.3 4 Este 5 Norte 0 933.6 0.7 89
2019-09-18 08:00:00 15 4 Norte 11 Nordeste 0 933.4 0.6 89
2019-09-18 07:00:00 15.4 5 Nordeste 10 Nordeste 0 932.7 -0.7 83
2019-09-18 06:00:00 15.2 5 Nordeste 10 Noroeste 0 932.9 -0.5 85
2019-09-18 05:00:00 15.3 5 Nordeste 14 Nordeste 0 932.8 -1 83
2019-09-18 04:00:00 15.1 5 Nordeste 10 Este 0 933.4 -0.7 87
2019-09-18 03:00:00 16.1 2 Este 16 Oeste 0 933.4 -1.2 82
2019-09-18 02:00:00 17 5 Nordeste 16 Nordeste 0 933.8 0 77
2019-09-18 01:00:00 17.4 7 Este 20 Este 0 934.1 0.5 79
2019-09-18 00:00:00 17.3 12 Este 28 Nordeste 0 934.6 1.7 78
2019-09-17 23:00:00 17.5 11 Nordeste 20 Nordeste 0.2 933.8 2 77
2019-09-17 22:00:00 18.3 6 Sudoeste 34 Sudeste 0 933.6 1.5 74
2019-09-17 21:00:00 18.6 23 Sudeste 64 Sur 1 932.9 1.3 68